sensor_id;sensor_type;location;lat;lon;timestamp;temperature;humidity
43185;DHT22;28803;52.308;19.096;2023-01-24T00:00:54;0.30;99.90
43185;DHT22;28803;52.308;19.096;2023-01-24T00:03:22;0.40;99.90
43185;DHT22;28803;52.308;19.096;2023-01-24T00:05:49;0.30;99.90
43185;DHT22;28803;52.308;19.096;2023-01-24T00:08:18;0.30;99.90
43185;DHT22;28803;52.308;19.096;2023-01-24T00:11:09;0.30;99.90
43185;DHT22;28803;52.308;19.096;2023-01-24T00:13:37;0.30;99.90
43185;DHT22;28803;52.308;19.096;2023-01-24T00:16:12;0.30;99.90
43185;DHT22;28803;52.308;19.096;2023-01-24T00:18:43;0.30;99.90
43185;DHT22;28803;52.308;19.096;2023-01-24T00:21:14;0.30;99.90
43185;DHT22;28803;52.308;19.096;2023-01-24T00:23:46;0.30;99.90
43185;DHT22;28803;52.308;19.096;2023-01-24T00:26:14;0.30;99.90
43185;DHT22;28803;52.308;19.096;2023-01-24T00:28:42;0.50;99.90
43185;DHT22;28803;52.308;19.096;2023-01-24T00:31:10;0.30;99.90
43185;DHT22;28803;52.308;19.096;2023-01-24T00:33:37;0.30;99.90
43185;DHT22;28803;52.308;19.096;2023-01-24T00:36:05;0.30;99.90
43185;DHT22;28803;52.308;19.096;2023-01-24T00:38:32;0.30;99.90
43185;DHT22;28803;52.308;19.096;2023-01-24T00:40:59;0.30;99.90
43185;DHT22;28803;52.308;19.096;2023-01-24T00:43:27;0.30;99.90
43185;DHT22;28803;52.308;19.096;2023-01-24T00:45:55;0.30;99.90
43185;DHT22;28803;52.308;19.096;2023-01-24T00:48:22;0.30;99.90
43185;DHT22;28803;52.308;19.096;2023-01-24T00:50:50;0.20;99.90
43185;DHT22;28803;52.308;19.096;2023-01-24T00:53:18;0.30;99.90
43185;DHT22;28803;52.308;19.096;2023-01-24T00:55:47;0.20;99.90
43185;DHT22;28803;52.308;19.096;2023-01-24T00:58:14;0.40;99.90
43185;DHT22;28803;52.308;19.096;2023-01-24T01:00:41;0.40;99.90
43185;DHT22;28803;52.308;19.096;2023-01-24T01:03:16;0.30;99.90
43185;DHT22;28803;52.308;19.096;2023-01-24T01:05:44;0.30;99.90
43185;DHT22;28803;52.308;19.096;2023-01-24T01:08:12;0.20;99.90
43185;DHT22;28803;52.308;19.096;2023-01-24T01:10:40;0.30;99.90
43185;DHT22;28803;52.308;19.096;2023-01-24T01:13:08;0.30;99.90
43185;DHT22;28803;52.308;19.096;2023-01-24T01:15:36;0.30;99.90
43185;DHT22;28803;52.308;19.096;2023-01-24T01:18:04;0.40;99.90
43185;DHT22;28803;52.308;19.096;2023-01-24T01:20:32;0.30;99.90
43185;DHT22;28803;52.308;19.096;2023-01-24T01:22:59;0.30;99.90
43185;DHT22;28803;52.308;19.096;2023-01-24T01:25:27;0.30;99.90
43185;DHT22;28803;52.308;19.096;2023-01-24T01:27:54;0.20;99.90
43185;DHT22;28803;52.308;19.096;2023-01-24T01:30:21;0.30;99.90
43185;DHT22;28803;52.308;19.096;2023-01-24T01:32:48;0.30;99.90
43185;DHT22;28803;52.308;19.096;2023-01-24T01:35:16;0.20;99.90
43185;DHT22;28803;52.308;19.096;2023-01-24T01:37:43;0.20;99.90
43185;DHT22;28803;52.308;19.096;2023-01-24T01:40:11;0.20;99.90
43185;DHT22;28803;52.308;19.096;2023-01-24T01:45:34;0.20;99.90
43185;DHT22;28803;52.308;19.096;2023-01-24T01:48:29;0.20;99.90
43185;DHT22;28803;52.308;19.096;2023-01-24T01:53:22;0.20;99.90
43185;DHT22;28803;52.308;19.096;2023-01-24T01:55:57;0.20;99.90
43185;DHT22;28803;52.308;19.096;2023-01-24T01:58:25;0.20;99.90
43185;DHT22;28803;52.308;19.096;2023-01-24T02:00:53;0.20;99.90
43185;DHT22;28803;52.308;19.096;2023-01-24T02:03:30;0.60;99.90
43185;DHT22;28803;52.308;19.096;2023-01-24T02:06:26;0.30;99.90
43185;DHT22;28803;52.308;19.096;2023-01-24T02:08:54;0.20;99.90
43185;DHT22;28803;52.308;19.096;2023-01-24T02:11:24;0.20;99.90
43185;DHT22;28803;52.308;19.096;2023-01-24T02:14:10;0.20;99.90
43185;DHT22;28803;52.308;19.096;2023-01-24T02:16:56;0.10;99.90
43185;DHT22;28803;52.308;19.096;2023-01-24T02:22:12;0.20;99.90
43185;DHT22;28803;52.308;19.096;2023-01-24T02:24:45;0.20;99.90
43185;DHT22;28803;52.308;19.096;2023-01-24T02:27:15;0.20;99.90
43185;DHT22;28803;52.308;19.096;2023-01-24T02:29:42;0.20;99.90
43185;DHT22;28803;52.308;19.096;2023-01-24T02:32:09;0.30;99.90
43185;DHT22;28803;52.308;19.096;2023-01-24T02:34:36;0.30;99.90
43185;DHT22;28803;52.308;19.096;2023-01-24T02:37:06;0.30;99.90
43185;DHT22;28803;52.308;19.096;2023-01-24T02:39:56;0.30;99.90
43185;DHT22;28803;52.308;19.096;2023-01-24T02:42:31;0.20;99.90
43185;DHT22;28803;52.308;19.096;2023-01-24T02:47:37;0.30;99.90
43185;DHT22;28803;52.308;19.096;2023-01-24T02:50:05;0.30;99.90
43185;DHT22;28803;52.308;19.096;2023-01-24T02:52:35;0.30;99.90
43185;DHT22;28803;52.308;19.096;2023-01-24T02:55:28;0.30;99.90
43185;DHT22;28803;52.308;19.096;2023-01-24T02:57:56;0.30;99.90
43185;DHT22;28803;52.308;19.096;2023-01-24T03:00:35;0.30;99.90
43185;DHT22;28803;52.308;19.096;2023-01-24T03:03:03;0.30;99.90
43185;DHT22;28803;52.308;19.096;2023-01-24T03:05:31;0.30;99.90
43185;DHT22;28803;52.308;19.096;2023-01-24T03:08:07;0.20;99.90
43185;DHT22;28803;52.308;19.096;2023-01-24T03:10:34;0.30;99.90
43185;DHT22;28803;52.308;19.096;2023-01-24T03:13:01;0.30;99.90
43185;DHT22;28803;52.308;19.096;2023-01-24T03:15:47;0.20;99.90
43185;DHT22;28803;52.308;19.096;2023-01-24T03:18:33;0.30;99.90
43185;DHT22;28803;52.308;19.096;2023-01-24T03:21:19;0.30;99.90
43185;DHT22;28803;52.308;19.096;2023-01-24T03:24:05;0.30;99.90
43185;DHT22;28803;52.308;19.096;2023-01-24T03:26:51;0.20;99.90
43185;DHT22;28803;52.308;19.096;2023-01-24T03:29:36;0.30;99.90
43185;DHT22;28803;52.308;19.096;2023-01-24T03:32:22;0.20;99.90
43185;DHT22;28803;52.308;19.096;2023-01-24T03:35:08;0.20;99.90
43185;DHT22;28803;52.308;19.096;2023-01-24T03:37:35;0.20;99.90
43185;DHT22;28803;52.308;19.096;2023-01-24T03:40:21;0.20;99.90
43185;DHT22;28803;52.308;19.096;2023-01-24T03:42:48;0.20;99.90
43185;DHT22;28803;52.308;19.096;2023-01-24T03:45:21;0.30;99.90
43185;DHT22;28803;52.308;19.096;2023-01-24T03:47:53;0.30;99.90
43185;DHT22;28803;52.308;19.096;2023-01-24T03:50:42;0.30;99.90
43185;DHT22;28803;52.308;19.096;2023-01-24T03:53:29;0.30;99.90
43185;DHT22;28803;52.308;19.096;2023-01-24T03:56:00;0.40;99.90
43185;DHT22;28803;52.308;19.096;2023-01-24T03:58:29;0.20;99.90
43185;DHT22;28803;52.308;19.096;2023-01-24T04:00:57;0.30;99.90
43185;DHT22;28803;52.308;19.096;2023-01-24T04:03:24;0.20;99.90
43185;DHT22;28803;52.308;19.096;2023-01-24T04:05:52;0.20;99.90
43185;DHT22;28803;52.308;19.096;2023-01-24T04:08:19;0.20;99.90
43185;DHT22;28803;52.308;19.096;2023-01-24T04:10:46;0.20;99.90
43185;DHT22;28803;52.308;19.096;2023-01-24T04:13:13;0.20;99.90
43185;DHT22;28803;52.308;19.096;2023-01-24T04:15:41;0.20;99.90
43185;DHT22;28803;52.308;19.096;2023-01-24T04:18:08;0.30;99.90
43185;DHT22;28803;52.308;19.096;2023-01-24T04:20:36;0.20;99.90
43185;DHT22;28803;52.308;19.096;2023-01-24T04:23:05;0.20;99.90
43185;DHT22;28803;52.308;19.096;2023-01-24T04:25:34;0.20;99.90
43185;DHT22;28803;52.308;19.096;2023-01-24T04:28:01;0.20;99.90
43185;DHT22;28803;52.308;19.096;2023-01-24T04:30:29;0.20;99.90
43185;DHT22;28803;52.308;19.096;2023-01-24T04:32:56;0.10;99.90
43185;DHT22;28803;52.308;19.096;2023-01-24T04:35:26;0.20;99.90
43185;DHT22;28803;52.308;19.096;2023-01-24T04:37:57;0.20;99.90
43185;DHT22;28803;52.308;19.096;2023-01-24T04:40:25;0.20;99.90
43185;DHT22;28803;52.308;19.096;2023-01-24T04:42:54;0.10;99.90
43185;DHT22;28803;52.308;19.096;2023-01-24T04:45:21;0.20;99.90
43185;DHT22;28803;52.308;19.096;2023-01-24T04:47:49;0.20;99.90
43185;DHT22;28803;52.308;19.096;2023-01-24T04:50:16;0.30;99.90
43185;DHT22;28803;52.308;19.096;2023-01-24T04:52:43;0.20;99.90
43185;DHT22;28803;52.308;19.096;2023-01-24T04:55:11;0.30;99.90
43185;DHT22;28803;52.308;19.096;2023-01-24T04:57:38;0.20;99.90
43185;DHT22;28803;52.308;19.096;2023-01-24T05:00:06;0.10;99.90
43185;DHT22;28803;52.308;19.096;2023-01-24T05:02:35;0.10;99.90
43185;DHT22;28803;52.308;19.096;2023-01-24T05:05:06;0.10;99.90
43185;DHT22;28803;52.308;19.096;2023-01-24T05:07:33;0.10;99.90
43185;DHT22;28803;52.308;19.096;2023-01-24T05:10:00;0.20;99.90
43185;DHT22;28803;52.308;19.096;2023-01-24T05:12:28;0.20;99.90
43185;DHT22;28803;52.308;19.096;2023-01-24T05:14:55;0.20;99.90
43185;DHT22;28803;52.308;19.096;2023-01-24T05:17:22;0.20;99.90
43185;DHT22;28803;52.308;19.096;2023-01-24T05:19:49;0.10;99.90
43185;DHT22;28803;52.308;19.096;2023-01-24T05:22:17;0.20;99.90
43185;DHT22;28803;52.308;19.096;2023-01-24T05:24:44;0.20;99.90
43185;DHT22;28803;52.308;19.096;2023-01-24T05:27:11;0.20;99.90
43185;DHT22;28803;52.308;19.096;2023-01-24T05:29:38;0.20;99.90
43185;DHT22;28803;52.308;19.096;2023-01-24T05:32:05;0.10;99.90
43185;DHT22;28803;52.308;19.096;2023-01-24T05:34:32;0.10;99.90
43185;DHT22;28803;52.308;19.096;2023-01-24T05:37:00;0.10;99.90
43185;DHT22;28803;52.308;19.096;2023-01-24T05:39:27;0.10;99.90
43185;DHT22;28803;52.308;19.096;2023-01-24T05:41:55;0.10;99.90
43185;DHT22;28803;52.308;19.096;2023-01-24T05:44:22;0.20;99.90
43185;DHT22;28803;52.308;19.096;2023-01-24T05:46:49;0.20;99.90
43185;DHT22;28803;52.308;19.096;2023-01-24T05:49:17;0.20;99.90
43185;DHT22;28803;52.308;19.096;2023-01-24T05:51:44;0.20;99.90
43185;DHT22;28803;52.308;19.096;2023-01-24T05:54:11;0.30;99.90
43185;DHT22;28803;52.308;19.096;2023-01-24T05:56:38;0.20;99.90
43185;DHT22;28803;52.308;19.096;2023-01-24T05:59:05;0.40;99.90
43185;DHT22;28803;52.308;19.096;2023-01-24T06:01:33;0.30;99.90
43185;DHT22;28803;52.308;19.096;2023-01-24T06:04:00;0.20;99.90
43185;DHT22;28803;52.308;19.096;2023-01-24T06:06:27;0.30;99.90
43185;DHT22;28803;52.308;19.096;2023-01-24T06:08:54;0.20;99.90
43185;DHT22;28803;52.308;19.096;2023-01-24T06:11:26;0.20;99.90
43185;DHT22;28803;52.308;19.096;2023-01-24T06:13:58;0.40;99.90
43185;DHT22;28803;52.308;19.096;2023-01-24T06:16:26;0.20;99.90
43185;DHT22;28803;52.308;19.096;2023-01-24T06:18:54;0.20;99.90
43185;DHT22;28803;52.308;19.096;2023-01-24T06:26:43;0.20;99.90
43185;DHT22;28803;52.308;19.096;2023-01-24T06:29:11;0.20;99.90
43185;DHT22;28803;52.308;19.096;2023-01-24T06:31:57;0.20;99.90
43185;DHT22;28803;52.308;19.096;2023-01-24T06:37:50;0.20;99.90
43185;DHT22;28803;52.308;19.096;2023-01-24T06:40:20;0.20;99.90
43185;DHT22;28803;52.308;19.096;2023-01-24T06:42:50;0.20;99.90
43185;DHT22;28803;52.308;19.096;2023-01-24T06:45:18;0.20;99.90
43185;DHT22;28803;52.308;19.096;2023-01-24T06:47:45;0.20;99.90
43185;DHT22;28803;52.308;19.096;2023-01-24T06:50:18;0.30;99.90
43185;DHT22;28803;52.308;19.096;2023-01-24T06:52:49;0.20;99.90
43185;DHT22;28803;52.308;19.096;2023-01-24T06:55:16;0.20;99.90
43185;DHT22;28803;52.308;19.096;2023-01-24T06:57:44;0.20;99.90
43185;DHT22;28803;52.308;19.096;2023-01-24T07:00:14;0.20;99.90
43185;DHT22;28803;52.308;19.096;2023-01-24T07:02:41;0.20;99.90
43185;DHT22;28803;52.308;19.096;2023-01-24T07:05:09;0.20;99.90
43185;DHT22;28803;52.308;19.096;2023-01-24T07:07:36;0.20;99.90
43185;DHT22;28803;52.308;19.096;2023-01-24T07:10:04;0.20;99.90
43185;DHT22;28803;52.308;19.096;2023-01-24T07:12:32;0.20;99.90
43185;DHT22;28803;52.308;19.096;2023-01-24T07:15:00;0.30;99.90
43185;DHT22;28803;52.308;19.096;2023-01-24T07:17:27;0.30;99.90
43185;DHT22;28803;52.308;19.096;2023-01-24T07:19:55;0.40;99.90
43185;DHT22;28803;52.308;19.096;2023-01-24T07:22:22;0.30;99.90
43185;DHT22;28803;52.308;19.096;2023-01-24T07:24:50;0.30;99.90
43185;DHT22;28803;52.308;19.096;2023-01-24T07:27:17;0.40;99.90
43185;DHT22;28803;52.308;19.096;2023-01-24T07:29:45;0.40;99.90
43185;DHT22;28803;52.308;19.096;2023-01-24T07:32:12;0.50;99.90
43185;DHT22;28803;52.308;19.096;2023-01-24T07:34:39;0.40;99.90
43185;DHT22;28803;52.308;19.096;2023-01-24T07:37:07;0.40;99.90
43185;DHT22;28803;52.308;19.096;2023-01-24T07:39:34;0.50;99.90
43185;DHT22;28803;52.308;19.096;2023-01-24T07:42:02;0.40;99.90
43185;DHT22;28803;52.308;19.096;2023-01-24T07:44:29;0.40;99.90
43185;DHT22;28803;52.308;19.096;2023-01-24T07:46:56;0.40;99.90
43185;DHT22;28803;52.308;19.096;2023-01-24T07:49:23;0.40;99.90
43185;DHT22;28803;52.308;19.096;2023-01-24T07:51:51;0.60;99.90
43185;DHT22;28803;52.308;19.096;2023-01-24T07:54:18;0.60;99.90
43185;DHT22;28803;52.308;19.096;2023-01-24T07:56:47;0.60;99.90
43185;DHT22;28803;52.308;19.096;2023-01-24T07:59:15;0.50;99.90
43185;DHT22;28803;52.308;19.096;2023-01-24T08:01:44;0.60;99.90
43185;DHT22;28803;52.308;19.096;2023-01-24T08:04:11;0.60;99.90
43185;DHT22;28803;52.308;19.096;2023-01-24T08:06:39;0.60;99.90
43185;DHT22;28803;52.308;19.096;2023-01-24T08:09:26;0.60;99.90
43185;DHT22;28803;52.308;19.096;2023-01-24T08:11:55;0.60;99.90
43185;DHT22;28803;52.308;19.096;2023-01-24T08:14:22;0.60;99.90
43185;DHT22;28803;52.308;19.096;2023-01-24T08:16:49;0.60;99.90
43185;DHT22;28803;52.308;19.096;2023-01-24T08:19:17;0.60;99.90
43185;DHT22;28803;52.308;19.096;2023-01-24T08:22:05;0.70;99.90
43185;DHT22;28803;52.308;19.096;2023-01-24T08:24:33;0.50;99.90
43185;DHT22;28803;52.308;19.096;2023-01-24T08:27:01;0.60;99.90
43185;DHT22;28803;52.308;19.096;2023-01-24T08:29:29;0.50;99.90
43185;DHT22;28803;52.308;19.096;2023-01-24T08:31:57;0.70;99.90
43185;DHT22;28803;52.308;19.096;2023-01-24T08:34:25;0.70;99.90
43185;DHT22;28803;52.308;19.096;2023-01-24T08:36:52;0.70;99.90
43185;DHT22;28803;52.308;19.096;2023-01-24T08:39:19;0.70;99.90
43185;DHT22;28803;52.308;19.096;2023-01-24T08:41:55;0.80;99.90
43185;DHT22;28803;52.308;19.096;2023-01-24T08:44:22;0.80;99.90
43185;DHT22;28803;52.308;19.096;2023-01-24T08:46:49;0.70;99.90
43185;DHT22;28803;52.308;19.096;2023-01-24T08:49:16;0.70;99.90
43185;DHT22;28803;52.308;19.096;2023-01-24T08:51:43;0.70;99.90
43185;DHT22;28803;52.308;19.096;2023-01-24T08:54:11;0.60;99.90
43185;DHT22;28803;52.308;19.096;2023-01-24T08:56:39;0.70;99.90
43185;DHT22;28803;52.308;19.096;2023-01-24T08:59:06;0.70;99.90
43185;DHT22;28803;52.308;19.096;2023-01-24T09:01:33;0.80;99.90
43185;DHT22;28803;52.308;19.096;2023-01-24T09:04:00;0.70;99.90
43185;DHT22;28803;52.308;19.096;2023-01-24T09:06:30;0.70;99.90
43185;DHT22;28803;52.308;19.096;2023-01-24T09:08:57;0.70;99.90
43185;DHT22;28803;52.308;19.096;2023-01-24T09:11:24;0.70;99.90
43185;DHT22;28803;52.308;19.096;2023-01-24T09:13:51;0.70;99.90
43185;DHT22;28803;52.308;19.096;2023-01-24T09:16:19;0.70;99.90
43185;DHT22;28803;52.308;19.096;2023-01-24T09:18:46;0.70;99.90
43185;DHT22;28803;52.308;19.096;2023-01-24T09:21:13;0.80;99.90
43185;DHT22;28803;52.308;19.096;2023-01-24T09:23:40;0.70;99.90
43185;DHT22;28803;52.308;19.096;2023-01-24T09:26:08;0.70;99.90
43185;DHT22;28803;52.308;19.096;2023-01-24T09:28:35;0.80;99.90
43185;DHT22;28803;52.308;19.096;2023-01-24T09:31:06;0.80;99.90
43185;DHT22;28803;52.308;19.096;2023-01-24T09:33:33;0.80;99.90
43185;DHT22;28803;52.308;19.096;2023-01-24T09:36:02;0.80;99.90
43185;DHT22;28803;52.308;19.096;2023-01-24T09:38:31;0.80;99.90
43185;DHT22;28803;52.308;19.096;2023-01-24T09:41:11;0.80;99.90
43185;DHT22;28803;52.308;19.096;2023-01-24T09:43:51;0.90;99.90
43185;DHT22;28803;52.308;19.096;2023-01-24T09:49:13;1.00;99.90
43185;DHT22;28803;52.308;19.096;2023-01-24T09:51:46;0.90;99.90
43185;DHT22;28803;52.308;19.096;2023-01-24T09:54:23;1.00;99.90
43185;DHT22;28803;52.308;19.096;2023-01-24T09:56:53;1.00;99.90
43185;DHT22;28803;52.308;19.096;2023-01-24T09:59:37;1.00;99.90
43185;DHT22;28803;52.308;19.096;2023-01-24T10:02:18;1.00;99.90
43185;DHT22;28803;52.308;19.096;2023-01-24T10:04:46;1.00;99.90
43185;DHT22;28803;52.308;19.096;2023-01-24T10:10:15;1.00;99.90
43185;DHT22;28803;52.308;19.096;2023-01-24T10:13:01;1.00;99.90
43185;DHT22;28803;52.308;19.096;2023-01-24T10:18:31;1.00;99.90
43185;DHT22;28803;52.308;19.096;2023-01-24T10:24:01;1.10;99.90
43185;DHT22;28803;52.308;19.096;2023-01-24T10:26:42;1.10;99.90
43185;DHT22;28803;52.308;19.096;2023-01-24T10:34:36;1.10;99.90
43185;DHT22;28803;52.308;19.096;2023-01-24T10:39:34;1.20;99.90
43185;DHT22;28803;52.308;19.096;2023-01-24T10:42:02;1.20;99.90
43185;DHT22;28803;52.308;19.096;2023-01-24T10:44:35;1.20;99.90
43185;DHT22;28803;52.308;19.096;2023-01-24T10:49:36;1.20;99.90
43185;DHT22;28803;52.308;19.096;2023-01-24T10:52:13;1.20;99.90
43185;DHT22;28803;52.308;19.096;2023-01-24T10:54:50;1.20;99.90
43185;DHT22;28803;52.308;19.096;2023-01-24T11:02:50;1.20;99.90
43185;DHT22;28803;52.308;19.096;2023-01-24T11:05:19;1.20;99.90
43185;DHT22;28803;52.308;19.096;2023-01-24T11:08:15;1.30;99.90
43185;DHT22;28803;52.308;19.096;2023-01-24T11:10:43;1.20;99.90
43185;DHT22;28803;52.308;19.096;2023-01-24T11:13:35;1.20;99.90
43185;DHT22;28803;52.308;19.096;2023-01-24T11:18:58;1.20;99.90
43185;DHT22;28803;52.308;19.096;2023-01-24T11:21:28;1.20;99.90
43185;DHT22;28803;52.308;19.096;2023-01-24T11:24:13;1.20;99.90
43185;DHT22;28803;52.308;19.096;2023-01-24T11:29:21;1.30;99.90
43185;DHT22;28803;52.308;19.096;2023-01-24T11:31:54;1.10;99.90
43185;DHT22;28803;52.308;19.096;2023-01-24T11:50:27;1.10;99.90
43185;DHT22;28803;52.308;19.096;2023-01-24T12:15:38;1.30;99.90
43185;DHT22;28803;52.308;19.096;2023-01-24T12:21:06;1.40;99.90
43185;DHT22;28803;52.308;19.096;2023-01-24T12:26:26;1.30;99.90
43185;DHT22;28803;52.308;19.096;2023-01-24T12:34:36;1.20;99.90
43185;DHT22;28803;52.308;19.096;2023-01-24T12:37:15;1.20;99.90
43185;DHT22;28803;52.308;19.096;2023-01-24T12:40:15;1.10;99.90
43185;DHT22;28803;52.308;19.096;2023-01-24T12:43:02;1.10;99.90
43185;DHT22;28803;52.308;19.096;2023-01-24T12:45:45;1.00;99.90
43185;DHT22;28803;52.308;19.096;2023-01-24T12:48:25;1.00;99.90
43185;DHT22;28803;52.308;19.096;2023-01-24T12:53:57;1.10;99.90
43185;DHT22;28803;52.308;19.096;2023-01-24T12:57:36;1.10;99.90
43185;DHT22;28803;52.308;19.096;2023-01-24T12:59:30;1.10;99.90
43185;DHT22;28803;52.308;19.096;2023-01-24T13:07:31;1.10;99.90
43185;DHT22;28803;52.308;19.096;2023-01-24T13:13:15;1.10;99.90
43185;DHT22;28803;52.308;19.096;2023-01-24T13:21:34;1.20;99.90
43185;DHT22;28803;52.308;19.096;2023-01-24T13:32:33;1.20;99.90
43185;DHT22;28803;52.308;19.096;2023-01-24T13:35:20;1.20;99.90
43185;DHT22;28803;52.308;19.096;2023-01-24T13:37:57;1.20;99.90
43185;DHT22;28803;52.308;19.096;2023-01-24T13:40:29;1.20;99.90
43185;DHT22;28803;52.308;19.096;2023-01-24T13:43:03;1.10;99.90
43185;DHT22;28803;52.308;19.096;2023-01-24T13:45:41;1.10;99.90
43185;DHT22;28803;52.308;19.096;2023-01-24T13:48:53;1.10;99.90
43185;DHT22;28803;52.308;19.096;2023-01-24T13:51:29;1.10;99.90
43185;DHT22;28803;52.308;19.096;2023-01-24T13:54:07;1.10;99.90
43185;DHT22;28803;52.308;19.096;2023-01-24T13:57:14;1.10;99.90
43185;DHT22;28803;52.308;19.096;2023-01-24T14:02:33;1.00;99.90
43185;DHT22;28803;52.308;19.096;2023-01-24T14:05:03;1.00;99.90
43185;DHT22;28803;52.308;19.096;2023-01-24T14:07:36;1.00;99.90
43185;DHT22;28803;52.308;19.096;2023-01-24T14:10:06;0.90;99.90
43185;DHT22;28803;52.308;19.096;2023-01-24T14:12:39;1.00;99.90
43185;DHT22;28803;52.308;19.096;2023-01-24T14:20:14;1.00;99.90
43185;DHT22;28803;52.308;19.096;2023-01-24T14:22:44;1.00;99.90
43185;DHT22;28803;52.308;19.096;2023-01-24T14:25:39;0.90;99.90
43185;DHT22;28803;52.308;19.096;2023-01-24T14:28:31;0.90;99.90
43185;DHT22;28803;52.308;19.096;2023-01-24T14:31:06;0.90;99.90
43185;DHT22;28803;52.308;19.096;2023-01-24T14:34:00;0.90;99.90
43185;DHT22;28803;52.308;19.096;2023-01-24T14:36:34;0.90;99.90
43185;DHT22;28803;52.308;19.096;2023-01-24T14:41:42;0.80;99.90
43185;DHT22;28803;52.308;19.096;2023-01-24T14:44:25;0.80;99.90
43185;DHT22;28803;52.308;19.096;2023-01-24T14:46:53;0.80;99.90
43185;DHT22;28803;52.308;19.096;2023-01-24T14:49:54;0.80;99.90
43185;DHT22;28803;52.308;19.096;2023-01-24T14:52:25;0.80;99.90
43185;DHT22;28803;52.308;19.096;2023-01-24T14:55:01;0.80;99.90
43185;DHT22;28803;52.308;19.096;2023-01-24T14:57:39;0.80;99.90
43185;DHT22;28803;52.308;19.096;2023-01-24T15:00:15;0.90;99.90
43185;DHT22;28803;52.308;19.096;2023-01-24T15:07:55;0.70;99.90
43185;DHT22;28803;52.308;19.096;2023-01-24T15:10:28;0.70;99.90
43185;DHT22;28803;52.308;19.096;2023-01-24T15:12:59;0.70;99.90
43185;DHT22;28803;52.308;19.096;2023-01-24T15:15:27;0.70;99.90
43185;DHT22;28803;52.308;19.096;2023-01-24T15:18:02;0.70;99.90
43185;DHT22;28803;52.308;19.096;2023-01-24T15:20:30;0.70;99.90
43185;DHT22;28803;52.308;19.096;2023-01-24T15:22:59;0.70;99.90
43185;DHT22;28803;52.308;19.096;2023-01-24T15:25:31;0.70;99.90
43185;DHT22;28803;52.308;19.096;2023-01-24T15:28:30;0.70;99.90
43185;DHT22;28803;52.308;19.096;2023-01-24T15:30:58;0.70;99.90
43185;DHT22;28803;52.308;19.096;2023-01-24T15:33:40;0.70;99.90
43185;DHT22;28803;52.308;19.096;2023-01-24T15:36:36;0.70;99.90
43185;DHT22;28803;52.308;19.096;2023-01-24T15:39:12;0.70;99.90
43185;DHT22;28803;52.308;19.096;2023-01-24T15:41:40;0.80;99.90
43185;DHT22;28803;52.308;19.096;2023-01-24T15:44:26;0.60;99.90
43185;DHT22;28803;52.308;19.096;2023-01-24T15:46:55;0.60;99.90
43185;DHT22;28803;52.308;19.096;2023-01-24T15:49:57;0.60;99.90
43185;DHT22;28803;52.308;19.096;2023-01-24T15:52:25;0.60;99.90
43185;DHT22;28803;52.308;19.096;2023-01-24T15:54:57;0.60;99.90
43185;DHT22;28803;52.308;19.096;2023-01-24T15:57:28;0.60;99.90
43185;DHT22;28803;52.308;19.096;2023-01-24T16:02:28;0.60;99.90
43185;DHT22;28803;52.308;19.096;2023-01-24T16:04:57;0.70;99.90
43185;DHT22;28803;52.308;19.096;2023-01-24T16:07:25;0.70;99.90
43185;DHT22;28803;52.308;19.096;2023-01-24T16:09:52;0.70;99.90
43185;DHT22;28803;52.308;19.096;2023-01-24T16:12:23;0.70;99.90
43185;DHT22;28803;52.308;19.096;2023-01-24T16:14:52;0.70;99.90
43185;DHT22;28803;52.308;19.096;2023-01-24T16:17:35;0.70;99.90
43185;DHT22;28803;52.308;19.096;2023-01-24T16:20:09;0.60;99.90
43185;DHT22;28803;52.308;19.096;2023-01-24T16:22:42;0.60;99.90
43185;DHT22;28803;52.308;19.096;2023-01-24T16:25:12;0.70;99.90
43185;DHT22;28803;52.308;19.096;2023-01-24T16:27:40;0.70;99.90
43185;DHT22;28803;52.308;19.096;2023-01-24T16:30:20;0.70;99.90
43185;DHT22;28803;52.308;19.096;2023-01-24T16:32:48;0.70;99.90
43185;DHT22;28803;52.308;19.096;2023-01-24T16:35:16;0.70;99.90
43185;DHT22;28803;52.308;19.096;2023-01-24T16:37:44;0.70;99.90
43185;DHT22;28803;52.308;19.096;2023-01-24T16:40:14;0.70;99.90
43185;DHT22;28803;52.308;19.096;2023-01-24T16:42:44;0.70;99.90
43185;DHT22;28803;52.308;19.096;2023-01-24T16:45:17;0.70;99.90
43185;DHT22;28803;52.308;19.096;2023-01-24T16:47:45;0.70;99.90
43185;DHT22;28803;52.308;19.096;2023-01-24T16:50:14;0.70;99.90
43185;DHT22;28803;52.308;19.096;2023-01-24T16:52:43;0.70;99.90
43185;DHT22;28803;52.308;19.096;2023-01-24T16:55:10;0.70;99.90
43185;DHT22;28803;52.308;19.096;2023-01-24T16:57:37;0.70;99.90
43185;DHT22;28803;52.308;19.096;2023-01-24T17:00:07;0.70;99.90
43185;DHT22;28803;52.308;19.096;2023-01-24T17:02:40;0.60;99.90
43185;DHT22;28803;52.308;19.096;2023-01-24T17:05:09;0.60;99.90
43185;DHT22;28803;52.308;19.096;2023-01-24T17:07:36;0.60;99.90
43185;DHT22;28803;52.308;19.096;2023-01-24T17:10:04;0.50;99.90
43185;DHT22;28803;52.308;19.096;2023-01-24T17:12:33;0.50;99.90
43185;DHT22;28803;52.308;19.096;2023-01-24T17:15:00;0.50;99.90
43185;DHT22;28803;52.308;19.096;2023-01-24T17:17:27;0.50;99.90
43185;DHT22;28803;52.308;19.096;2023-01-24T17:19:55;0.40;99.90
43185;DHT22;28803;52.308;19.096;2023-01-24T17:22:22;0.50;99.90
43185;DHT22;28803;52.308;19.096;2023-01-24T17:24:49;0.50;99.90
43185;DHT22;28803;52.308;19.096;2023-01-24T17:27:16;0.40;99.90
43185;DHT22;28803;52.308;19.096;2023-01-24T17:29:43;0.40;99.90
43185;DHT22;28803;52.308;19.096;2023-01-24T17:32:11;0.40;99.90
43185;DHT22;28803;52.308;19.096;2023-01-24T17:34:38;0.40;99.90
43185;DHT22;28803;52.308;19.096;2023-01-24T17:37:05;0.40;99.90
43185;DHT22;28803;52.308;19.096;2023-01-24T17:39:33;0.40;99.90
43185;DHT22;28803;52.308;19.096;2023-01-24T17:42:00;0.40;99.90
43185;DHT22;28803;52.308;19.096;2023-01-24T17:44:27;0.40;99.90
43185;DHT22;28803;52.308;19.096;2023-01-24T17:46:55;0.40;99.90
43185;DHT22;28803;52.308;19.096;2023-01-24T17:49:24;0.30;99.90
43185;DHT22;28803;52.308;19.096;2023-01-24T17:51:51;0.40;99.90
43185;DHT22;28803;52.308;19.096;2023-01-24T17:54:18;0.40;99.90
43185;DHT22;28803;52.308;19.096;2023-01-24T17:56:45;0.30;99.90
43185;DHT22;28803;52.308;19.096;2023-01-24T17:59:12;0.40;99.90
43185;DHT22;28803;52.308;19.096;2023-01-24T18:01:40;0.40;99.90
43185;DHT22;28803;52.308;19.096;2023-01-24T18:04:07;0.40;99.90
43185;DHT22;28803;52.308;19.096;2023-01-24T18:06:34;0.40;99.90
43185;DHT22;28803;52.308;19.096;2023-01-24T18:09:02;0.40;99.90
43185;DHT22;28803;52.308;19.096;2023-01-24T18:11:30;0.30;99.90
43185;DHT22;28803;52.308;19.096;2023-01-24T18:13:57;0.30;99.90
43185;DHT22;28803;52.308;19.096;2023-01-24T18:16:24;0.50;99.90
43185;DHT22;28803;52.308;19.096;2023-01-24T18:18:52;0.30;99.90
43185;DHT22;28803;52.308;19.096;2023-01-24T18:21:22;0.40;99.90
43185;DHT22;28803;52.308;19.096;2023-01-24T18:23:51;0.30;99.90